Time;durP1;ratioP1;P1;durP2;ratioP2;P2;SDS_P1;SDS_P2;PMS_P1;PMS_P2;Temp;Humidity;BMP_temperature;BMP_pressure;BME280_temperature;BME280_humidity;BME280_pressure;Samples;Min_cycle;Max_cycle;Signal;HPM_P1;HPM_P2
2021/09/29 00:02:15;;;;;;;7.00;4.00;;;10.20;99.90;;;;;;5059502;28;20553;-56
2021/09/29 00:04:42;;;;;;;5.30;4.07;;;10.30;99.90;;;;;;5059192;28;20462;-57
2021/09/29 00:07:09;;;;;;;9.90;4.43;;;10.30;99.90;;;;;;5058605;28;20433;-57
2021/09/29 00:09:36;;;;;;;5.63;3.80;;;10.30;1.00;;;;;;5059175;28;20773;-56
2021/09/29 00:12:04;;;;;;;13.33;4.30;;;10.30;1.00;;;;;;5059410;28;20825;-57
2021/09/29 00:14:34;;;;;;;5.20;3.80;;;10.30;1.00;;;;;;5059178;28;20787;-57
2021/09/29 00:17:04;;;;;;;9.17;3.80;;;10.20;1.00;;;;;;5059093;28;20477;-53
2021/09/29 00:19:32;;;;;;;10.00;3.67;;;10.20;1.00;;;;;;5058677;28;20767;-57
2021/09/29 00:21:59;;;;;;;9.63;3.90;;;10.30;99.90;;;;;;5059331;28;20520;-56
2021/09/29 00:24:26;;;;;;;8.97;4.13;;;10.30;99.90;;;;;;5058730;28;20511;-56
2021/09/29 00:26:53;;;;;;;9.27;4.00;;;10.40;63.60;;;;;;5058331;28;20523;-57
2021/09/29 00:29:20;;;;;;;4.43;3.70;;;10.40;24.80;;;;;;5058854;28;20494;-57
2021/09/29 00:31:47;;;;;;;7.50;4.00;;;10.40;99.90;;;;;;5059029;28;20465;-54
2021/09/29 00:34:22;;;;;;;6.00;3.77;;;10.40;76.80;;;;;;5058418;28;20486;-51
2021/09/29 00:36:51;;;;;;;7.13;3.70;;;10.50;1.00;;;;;;5058702;28;20764;-56
2021/09/29 00:39:19;;;;;;;7.10;4.20;;;10.50;1.00;;;;;;5057978;28;20462;-56
2021/09/29 00:41:47;;;;;;;7.00;4.20;;;10.50;1.00;;;;;;5058687;28;20465;-54
2021/09/29 00:44:14;;;;;;;7.37;4.10;;;10.50;1.00;;;;;;5057902;28;20557;-55
2021/09/29 00:46:42;;;;;;;7.10;5.33;;;10.50;1.00;;;;;;5058302;28;20520;-57
2021/09/29 00:49:09;;;;;;;6.00;4.40;;;10.50;99.90;;;;;;5058096;28;20490;-56
2021/09/29 00:51:37;;;;;;;10.40;4.67;;;10.50;1.00;;;;;;5058703;28;20483;-57
2021/09/29 00:54:06;;;;;;;6.90;4.20;;;10.50;99.90;;;;;;5058304;28;20465;-57
2021/09/29 00:56:34;;;;;;;6.47;3.80;;;10.50;99.90;;;;;;5058380;28;20546;-58
2021/09/29 00:59:01;;;;;;;7.87;4.10;;;10.50;99.90;;;;;;5057913;28;20459;-57
2021/09/29 01:01:28;;;;;;;7.30;3.73;;;10.50;1.00;;;;;;5057389;28;20465;-58
2021/09/29 01:03:56;;;;;;;6.57;3.90;;;10.50;99.90;;;;;;5057783;28;20462;-56
2021/09/29 01:06:27;;;;;;;7.93;3.67;;;10.60;99.90;;;;;;5057933;28;20469;-57
2021/09/29 01:09:00;;;;;;;6.00;4.00;;;10.50;1.00;;;;;;5057716;28;20490;-57
2021/09/29 01:11:37;;;;;;;7.40;4.30;;;10.50;69.00;;;;;;5057897;28;20469;-58
2021/09/29 01:14:10;;;;;;;8.30;3.90;;;10.50;1.00;;;;;;5058280;28;20819;-53
2021/09/29 01:16:39;;;;;;;10.13;5.00;;;10.50;93.30;;;;;;5057560;28;20527;-56
2021/09/29 01:19:16;;;;;;;7.57;4.40;;;10.50;1.00;;;;;;5057922;28;20458;-54
2021/09/29 01:21:50;;;;;;;6.50;4.13;;;10.60;99.90;;;;;;5057849;28;20461;-58
2021/09/29 01:24:23;;;;;;;7.37;3.60;;;10.60;1.00;;;;;;5057985;28;20466;-56
2021/09/29 01:26:59;;;;;;;6.43;4.13;;;10.60;34.30;;;;;;5057941;28;20881;-54
2021/09/29 01:29:26;;;;;;;7.10;3.70;;;10.60;1.00;;;;;;5057691;28;20580;-57
2021/09/29 01:31:54;;;;;;;7.60;4.00;;;10.70;1.00;;;;;;5057978;28;20523;-58
2021/09/29 01:34:21;;;;;;;8.93;4.70;;;10.60;99.90;;;;;;5057006;28;20490;-53
2021/09/29 01:36:48;;;;;;;4.20;3.10;;;10.60;1.00;;;;;;5057532;28;20970;-56
2021/09/29 01:39:24;;;;;;;6.23;4.77;;;10.60;1.00;;;;;;5057867;28;20465;-54
2021/09/29 01:41:51;;;;;;;6.30;3.60;;;10.60;1.00;;;;;;5057679;28;20469;-56
2021/09/29 01:44:20;;;;;;;9.40;4.63;;;10.60;1.00;;;;;;5057658;28;20520;-55
2021/09/29 01:46:47;;;;;;;6.87;4.33;;;10.70;99.90;;;;;;5057281;28;20744;-55
2021/09/29 01:49:25;;;;;;;14.30;4.60;;;10.70;99.90;;;;;;5057283;28;20584;-51
2021/09/29 01:51:53;;;;;;;6.47;3.90;;;10.70;99.90;;;;;;5057504;28;20469;-56
2021/09/29 01:54:24;;;;;;;6.80;4.33;;;10.70;1.00;;;;;;5057971;28;20462;-56
2021/09/29 01:56:53;;;;;;;8.17;4.47;;;10.70;1.00;;;;;;5057069;28;20905;-56
2021/09/29 01:59:23;;;;;;;7.43;4.17;;;10.70;1.00;;;;;;5057159;28;20458;-54
2021/09/29 02:01:50;;;;;;;6.70;4.00;;;10.70;1.00;;;;;;5057308;28;20516;-57
2021/09/29 02:04:20;;;;;;;5.13;3.57;;;10.70;1.00;;;;;;5057637;28;20751;-56
2021/09/29 02:06:48;;;;;;;8.17;4.20;;;10.70;1.00;;;;;;5056904;28;20501;-56
2021/09/29 02:09:16;;;;;;;9.70;4.30;;;10.60;99.90;;;;;;5057300;28;20952;-57
2021/09/29 02:11:43;;;;;;;9.47;5.37;;;10.60;99.90;;;;;;5037205;28;20492;-55
2021/09/29 02:14:13;;;;;;;8.07;5.03;;;10.60;99.90;;;;;;5037413;28;20521;-57
2021/09/29 02:16:41;;;;;;;13.00;4.50;;;10.60;1.00;;;;;;5036956;28;20502;-58
2021/09/29 02:19:08;;;;;;;7.73;4.00;;;10.60;99.90;;;;;;5037312;28;20455;-54
2021/09/29 02:21:35;;;;;;;6.90;4.50;;;10.60;1.00;;;;;;5037023;28;20463;-52
2021/09/29 02:24:05;;;;;;;7.00;3.87;;;10.60;1.00;;;;;;5037092;28;20463;-56
2021/09/29 02:26:32;;;;;;;6.80;4.00;;;10.60;1.00;;;;;;5036587;28;20467;-57
2021/09/29 02:28:59;;;;;;;5.60;4.13;;;10.60;1.00;;;;;;5036868;28;20553;-56
2021/09/29 02:31:27;;;;;;;7.07;4.93;;;10.60;1.00;;;;;;5036860;28;20509;-53
2021/09/29 02:33:55;;;;;;;9.53;5.13;;;10.60;1.00;;;;;;5047513;28;20502;-51
2021/09/29 02:36:23;;;;;;;11.03;4.17;;;10.60;1.00;;;;;;5056281;28;20462;-57
2021/09/29 02:38:51;;;;;;;6.20;4.27;;;10.60;1.00;;;;;;5056786;28;20531;-53
2021/09/29 02:41:19;;;;;;;6.43;4.20;;;10.60;1.00;;;;;;5056721;28;20473;-53
2021/09/29 02:43:46;;;;;;;8.57;4.17;;;10.60;1.00;;;;;;5056932;28;20508;-53
2021/09/29 02:46:14;;;;;;;7.73;4.37;;;10.70;1.00;;;;;;5056543;28;20471;-53
2021/09/29 02:48:41;;;;;;;5.60;4.10;;;10.70;1.00;;;;;;5056243;28;20496;-53
2021/09/29 02:51:12;;;;;;;6.03;4.73;;;10.80;99.90;;;;;;5056773;28;20462;-57
2021/09/29 02:53:39;;;;;;;6.90;4.20;;;10.70;99.90;;;;;;5056794;28;20462;-54
2021/09/29 02:56:06;;;;;;;5.13;4.00;;;10.70;99.90;;;;;;5056451;28;20464;-57
2021/09/29 02:58:33;;;;;;;5.70;3.80;;;10.70;99.90;;;;;;5056194;28;20517;-56
2021/09/29 03:01:01;;;;;;;6.30;3.77;;;10.80;99.90;;;;;;5056547;28;20888;-57
2021/09/29 03:03:32;;;;;;;8.47;4.17;;;10.80;99.90;;;;;;5060371;28;20468;-54
2021/09/29 03:05:59;;;;;;;9.00;4.43;;;10.80;99.90;;;;;;5060061;28;20466;-54
2021/09/29 03:08:27;;;;;;;7.10;5.13;;;10.90;1.00;;;;;;5060235;28;20819;-55
2021/09/29 03:10:54;;;;;;;7.27;4.00;;;10.90;1.00;;;;;;5059733;28;20563;-53
2021/09/29 03:13:22;;;;;;;6.43;4.60;;;10.90;1.00;;;;;;5060633;28;20462;-56
2021/09/29 03:15:49;;;;;;;6.33;4.30;;;10.90;1.00;;;;;;5060106;28;20465;-53
2021/09/29 03:18:17;;;;;;;6.27;3.90;;;10.80;1.00;;;;;;5060333;28;20506;-53
2021/09/29 03:20:45;;;;;;;9.30;4.20;;;10.80;1.00;;;;;;5059769;28;20462;-54
2021/09/29 03:23:12;;;;;;;5.90;3.80;;;10.80;1.00;;;;;;5060035;28;20521;-56
2021/09/29 03:25:43;;;;;;;10.60;4.40;;;10.80;1.00;;;;;;5060459;28;20728;-55
2021/09/29 03:28:10;;;;;;;5.50;3.73;;;10.80;1.00;;;;;;5059903;28;20466;-57
2021/09/29 03:30:38;;;;;;;7.80;4.50;;;10.80;1.00;;;;;;5059789;28;20948;-53
2021/09/29 03:33:06;;;;;;;7.00;4.13;;;10.80;1.00;;;;;;5059814;28;20458;-48
2021/09/29 03:35:34;;;;;;;7.17;4.70;;;10.80;1.00;;;;;;5059628;28;20469;-54
2021/09/29 03:38:02;;;;;;;6.03;4.10;;;10.70;1.00;;;;;;5059958;28;20469;-51
2021/09/29 03:40:29;;;;;;;5.70;3.90;;;10.80;1.00;;;;;;5059661;28;20462;-54
2021/09/29 03:42:57;;;;;;;4.57;4.07;;;10.70;1.00;;;;;;5059667;28;20821;-54
2021/09/29 03:45:26;;;;;;;11.30;4.73;;;10.70;1.00;;;;;;5059927;28;20496;-57
2021/09/29 03:47:53;;;;;;;7.53;4.23;;;10.70;1.00;;;;;;5059499;28;20463;-54
2021/09/29 03:50:24;;;;;;;6.80;4.33;;;10.80;1.00;;;;;;5059206;28;20494;-52
2021/09/29 03:52:51;;;;;;;10.77;4.30;;;10.70;1.00;;;;;;5059245;28;20441;-58
2021/09/29 03:55:18;;;;;;;11.40;5.07;;;10.70;1.00;;;;;;5059642;28;20485;-58
2021/09/29 03:57:45;;;;;;;8.20;4.33;;;10.60;1.00;;;;;;5059701;28;20776;-56
2021/09/29 04:00:16;;;;;;;6.77;4.40;;;10.60;38.30;;;;;;5059542;28;20458;-54
2021/09/29 04:02:43;;;;;;;10.60;5.10;;;10.60;1.00;;;;;;5059083;28;20466;-55
2021/09/29 04:05:11;;;;;;;7.10;4.40;;;10.60;21.70;;;;;;5059192;28;20516;-56
2021/09/29 04:07:38;;;;;;;5.73;4.73;;;10.60;97.20;;;;;;5059360;28;20920;-54
2021/09/29 04:10:10;;;;;;;8.10;4.97;;;10.60;99.90;;;;;;5059175;28;20559;-55
2021/09/29 04:12:39;;;;;;;8.87;4.33;;;10.60;99.90;;;;;;5058378;28;20980;-54
2021/09/29 04:15:07;;;;;;;6.07;5.40;;;10.60;99.90;;;;;;5059114;28;20913;-56
2021/09/29 04:17:37;;;;;;;13.13;5.10;;;10.50;99.90;;;;;;5058525;28;20569;-55
2021/09/29 04:20:08;;;;;;;8.47;5.30;;;10.50;99.90;;;;;;5059051;28;20458;-52
2021/09/29 04:22:36;;;;;;;9.20;5.60;;;10.50;99.90;;;;;;5058892;28;20488;-55
2021/09/29 04:25:03;;;;;;;8.90;5.00;;;10.40;1.00;;;;;;5058696;28;20437;-55
2021/09/29 04:27:30;;;;;;;9.57;5.40;;;10.40;1.00;;;;;;5058939;28;20520;-52
2021/09/29 04:29:58;;;;;;;5.33;4.70;;;10.40;99.90;;;;;;5058725;28;20498;-57
2021/09/29 04:32:26;;;;;;;5.87;4.23;;;10.30;99.90;;;;;;5058512;28;20758;-54
2021/09/29 04:34:55;;;;;;;6.20;5.20;;;10.30;99.90;;;;;;5058362;28;20581;-51
2021/09/29 04:37:22;;;;;;;6.73;4.80;;;10.30;99.90;;;;;;5057600;28;20466;-52
2021/09/29 04:39:49;;;;;;;7.83;4.90;;;10.20;1.00;;;;;;5058066;28;20527;-56
2021/09/29 04:42:19;;;;;;;9.80;5.17;;;10.20;1.00;;;;;;5058440;28;20517;-53
2021/09/29 04:44:47;;;;;;;7.10;4.83;;;10.20;17.30;;;;;;5058010;28;20461;-58
2021/09/29 04:47:14;;;;;;;6.70;5.10;;;10.20;1.00;;;;;;5057738;28;20468;-54
2021/09/29 04:49:41;;;;;;;11.10;5.60;;;10.30;99.90;;;;;;5057818;28;20840;-54
2021/09/29 04:52:10;;;;;;;8.33;4.77;;;10.30;1.00;;;;;;5057668;28;20470;-58
2021/09/29 04:54:41;;;;;;;8.07;5.60;;;10.30;1.00;;;;;;5057745;28;20470;-54
2021/09/29 04:57:08;;;;;;;10.77;5.60;;;10.30;99.90;;;;;;5058107;28;20472;-58
2021/09/29 04:59:35;;;;;;;11.13;9.13;;;10.30;1.00;;;;;;5058030;28;20466;-57
2021/09/29 05:02:04;;;;;;;13.33;12.17;;;10.40;1.00;;;;;;5057861;28;20515;-55
2021/09/29 05:04:31;;;;;;;10.93;7.77;;;10.40;99.90;;;;;;5057110;28;20473;-55
2021/09/29 05:07:00;;;;;;;16.63;11.50;;;10.30;99.90;;;;;;5057464;28;20478;-56
2021/09/29 05:09:28;;;;;;;12.00;9.43;;;10.30;99.90;;;;;;5056329;28;20892;-52
2021/09/29 05:12:03;;;;;;;9.90;6.07;;;10.40;1.00;;;;;;5037918;28;20442;-56
2021/09/29 05:14:33;;;;;;;6.80;6.10;;;10.40;1.00;;;;;;5038108;28;20462;-57
2021/09/29 05:17:03;;;;;;;9.00;6.90;;;10.40;99.90;;;;;;5037576;28;20463;-53
2021/09/29 05:19:32;;;;;;;23.23;16.33;;;10.40;99.90;;;;;;5037696;28;20463;-59
2021/09/29 05:22:02;;;;;;;10.10;7.10;;;10.50;99.90;;;;;;5038009;28;20466;-58
2021/09/29 05:24:31;;;;;;;10.73;7.30;;;10.50;99.90;;;;;;5037189;28;20562;-56
2021/09/29 05:26:58;;;;;;;6.07;5.20;;;10.50;99.90;;;;;;5037599;28;20467;-57
2021/09/29 05:29:28;;;;;;;9.07;6.43;;;10.50;99.90;;;;;;5037610;28;20917;-58
2021/09/29 05:31:58;;;;;;;10.40;5.73;;;10.50;60.30;;;;;;5037870;28;20463;-59
2021/09/29 05:34:26;;;;;;;8.27;6.73;;;10.50;99.90;;;;;;5052301;28;20490;-55
2021/09/29 05:36:58;;;;;;;8.50;7.37;;;10.60;99.90;;;;;;5057283;28;20532;-58
2021/09/29 05:39:29;;;;;;;9.90;6.20;;;10.60;99.90;;;;;;5056854;28;20473;-58
2021/09/29 05:42:01;;;;;;;7.73;5.80;;;10.60;99.90;;;;;;5056749;28;20508;-58
2021/09/29 05:44:29;;;;;;;6.20;5.20;;;10.80;99.90;;;;;;5056275;28;20532;-58
2021/09/29 05:46:58;;;;;;;6.27;4.83;;;10.90;1.00;;;;;;5057055;28;20476;-60
2021/09/29 05:49:25;;;;;;;6.47;5.87;;;11.00;1.00;;;;;;5056777;28;20508;-58
2021/09/29 05:51:52;;;;;;;9.00;6.27;;;11.00;1.00;;;;;;5056647;28;20548;-59
2021/09/29 05:54:21;;;;;;;7.80;5.60;;;11.10;1.00;;;;;;5056331;28;20520;-58
2021/09/29 05:56:48;;;;;;;6.70;5.17;;;11.20;99.90;;;;;;5057257;28;20527;-60
2021/09/29 05:59:17;;;;;;;6.80;5.13;;;11.30;99.90;;;;;;5057290;28;20506;-55
2021/09/29 06:01:45;;;;;;;9.83;5.10;;;11.40;99.90;;;;;;5057060;28;20462;-59
2021/09/29 06:04:12;;;;;;;8.27;4.70;;;11.50;99.90;;;;;;5057348;28;20905;-59
2021/09/29 06:06:42;;;;;;;6.13;5.00;;;11.60;79.50;;;;;;5056810;28;20474;-60
2021/09/29 06:09:14;;;;;;;5.93;4.20;;;11.70;86.60;;;;;;5056573;28;20583;-60
2021/09/29 06:11:41;;;;;;;10.17;4.50;;;11.80;43.80;;;;;;5036766;28;20548;-59
2021/09/29 06:14:10;;;;;;;7.07;4.53;;;11.90;1.00;;;;;;5037253;28;20520;-56
2021/09/29 06:16:44;;;;;;;5.13;4.53;;;12.10;1.00;;;;;;5036995;28;20825;-58
2021/09/29 06:19:14;;;;;;;6.03;4.03;;;12.10;1.00;;;;;;5036879;28;20905;-56
2021/09/29 06:21:42;;;;;;;6.73;3.93;;;12.20;1.00;;;;;;5036457;28;20781;-56
2021/09/29 06:24:14;;;;;;;6.93;4.13;;;12.30;1.00;;;;;;5036315;28;20471;-55
2021/09/29 06:26:46;;;;;;;6.40;4.03;;;12.40;1.00;;;;;;5036857;28;20490;-58
2021/09/29 06:29:13;;;;;;;5.60;4.30;;;12.40;1.00;;;;;;5036360;28;20517;-59
2021/09/29 06:31:42;;;;;;;6.13;3.90;;;12.50;1.00;;;;;;5037302;28;20748;-55
2021/09/29 06:34:09;;;;;;;6.03;4.80;;;12.60;1.00;;;;;;5049848;28;20522;-57
2021/09/29 06:36:36;;;;;;;7.70;5.00;;;12.60;1.00;;;;;;5057789;28;20462;-54
2021/09/29 06:39:03;;;;;;;9.20;5.93;;;12.70;1.00;;;;;;5060209;28;20461;-58
2021/09/29 06:41:30;;;;;;;11.67;4.50;;;12.60;1.00;;;;;;5060877;28;20893;-58
2021/09/29 06:43:59;;;;;;;6.27;5.40;;;12.50;1.00;;;;;;5060608;28;20450;-59
2021/09/29 06:46:26;;;;;;;14.73;6.53;;;12.50;1.00;;;;;;5060411;28;20515;-56
2021/09/29 06:48:56;;;;;;;9.37;5.47;;;12.40;1.00;;;;;;5060400;28;20512;-57
2021/09/29 06:51:24;;;;;;;6.80;4.33;;;12.40;1.00;;;;;;5060283;28;20486;-56
2021/09/29 06:53:51;;;;;;;8.13;5.53;;;12.40;1.00;;;;;;5060626;28;20462;-57
2021/09/29 06:56:19;;;;;;;8.57;5.50;;;12.40;1.00;;;;;;5060945;28;20458;-54
2021/09/29 06:58:46;;;;;;;10.33;5.23;;;12.50;1.00;;;;;;5060413;28;20466;-58
2021/09/29 07:01:14;;;;;;;7.40;5.53;;;12.50;1.00;;;;;;5060276;28;20557;-54
2021/09/29 07:03:43;;;;;;;10.17;6.50;;;12.60;1.00;;;;;;5060552;28;20462;-55
2021/09/29 07:06:12;;;;;;;9.93;7.60;;;12.70;1.00;;;;;;5060840;28;20466;-59
2021/09/29 07:08:44;;;;;;;5.53;4.60;;;12.70;1.00;;;;;;5060628;28;20904;-56
2021/09/29 07:11:11;;;;;;;7.57;4.70;;;12.60;1.00;;;;;;5060553;28;20486;-58
2021/09/29 07:13:38;;;;;;;8.23;5.60;;;12.70;1.00;;;;;;5060301;28;20818;-58
2021/09/29 07:16:07;;;;;;;6.53;4.73;;;12.70;1.00;;;;;;5060322;28;20531;-59
2021/09/29 07:18:35;;;;;;;7.10;4.97;;;12.60;1.00;;;;;;5059875;28;20500;-58
2021/09/29 07:21:07;;;;;;;6.73;5.43;;;12.60;1.00;;;;;;5059856;28;20505;-60
2021/09/29 07:23:37;;;;;;;6.27;3.90;;;12.50;1.00;;;;;;5059952;28;20461;-64
2021/09/29 07:26:18;;;;;;;5.97;4.80;;;12.50;42.20;;;;;;5060263;28;20501;-61
2021/09/29 07:28:49;;;;;;;10.83;4.23;;;12.50;99.90;;;;;;5060045;28;20512;-57
2021/09/29 07:31:16;;;;;;;6.30;4.23;;;12.40;99.90;;;;;;5060188;28;20529;-59
2021/09/29 07:33:45;;;;;;;8.10;4.70;;;12.30;99.90;;;;;;5059960;28;20805;-59
2021/09/29 07:36:12;;;;;;;5.50;4.83;;;12.30;1.00;;;;;;5059760;28;20928;-59
2021/09/29 07:38:41;;;;;;;7.20;4.70;;;12.30;1.00;;;;;;5060081;28;20971;-59
2021/09/29 07:41:08;;;;;;;16.27;4.70;;;12.30;1.00;;;;;;5060101;28;20437;-60
2021/09/29 07:43:35;;;;;;;6.20;3.80;;;12.30;17.10;;;;;;5060314;28;20503;-61
2021/09/29 07:46:03;;;;;;;7.40;4.63;;;12.30;99.90;;;;;;5059533;28;20462;-59
2021/09/29 07:48:30;;;;;;;12.07;4.40;;;12.30;99.90;;;;;;5059198;28;20527;-62
2021/09/29 07:50:58;;;;;;;7.23;5.73;;;12.30;99.90;;;;;;5059452;28;20801;-59
2021/09/29 07:53:25;;;;;;;9.93;5.93;;;12.30;89.20;;;;;;5059425;28;20481;-60
2021/09/29 07:55:55;;;;;;;10.63;5.43;;;12.20;99.90;;;;;;5059696;28;20468;-61
2021/09/29 07:58:22;;;;;;;5.80;5.17;;;12.20;99.90;;;;;;5059146;28;20462;-60
2021/09/29 08:00:49;;;;;;;7.13;5.87;;;12.20;99.90;;;;;;5059393;28;20531;-60
2021/09/29 08:03:19;;;;;;;12.60;5.93;;;12.10;99.90;;;;;;5059327;28;20466;-57
2021/09/29 08:05:46;;;;;;;9.07;5.77;;;12.10;1.00;;;;;;5059742;28;20889;-60
2021/09/29 08:08:13;;;;;;;6.50;5.57;;;12.10;1.00;;;;;;5058991;28;20468;-60
2021/09/29 08:10:40;;;;;;;7.37;6.17;;;12.10;1.00;;;;;;5058555;28;20490;-61
2021/09/29 08:13:12;;;;;;;5.80;4.93;;;12.20;18.50;;;;;;5059351;28;20469;-62
2021/09/29 08:15:39;;;;;;;7.93;4.63;;;12.30;28.60;;;;;;5059011;28;20833;-61
2021/09/29 08:18:06;;;;;;;7.60;5.80;;;12.30;1.00;;;;;;5059279;28;20470;-60
2021/09/29 08:20:37;;;;;;;7.40;5.20;;;12.50;1.00;;;;;;5058812;28;20958;-61
2021/09/29 08:23:07;;;;;;;7.60;5.50;;;12.50;1.00;;;;;;5058634;28;20501;-61
2021/09/29 08:25:56;;;;;;;7.50;5.10;;;12.50;1.00;;;;;;5058777;28;20466;-61
2021/09/29 08:31:13;;;;;;;7.83;5.20;;;12.50;1.00;;;;;;5058145;28;20478;-64
2021/09/29 08:36:28;;;;;;;7.60;5.53;;;12.30;1.00;;;;;;5051141;28;20466;-64
2021/09/29 08:38:57;;;;;;;7.67;5.23;;;12.20;99.90;;;;;;5058848;28;20880;-66
2021/09/29 08:44:16;;;;;;;9.03;5.70;;;12.10;99.90;;;;;;5040559;28;20572;-66
2021/09/29 08:46:59;;;;;;;6.10;5.50;;;12.00;99.90;;;;;;5058695;28;20466;-63
2021/09/29 08:49:33;;;;;;;6.23;5.53;;;12.00;99.90;;;;;;5058404;28;20474;-64
2021/09/29 08:52:21;;;;;;;5.70;5.20;;;12.00;99.90;;;;;;5058784;28;20588;-65
2021/09/29 08:55:15;;;;;;;6.70;6.00;;;12.00;99.90;;;;;;5058389;28;20490;-64
2021/09/29 09:17:04;;;;;;;5.97;5.10;;;12.80;99.90;;;;;;5037702;28;20482;-65
2021/09/29 09:19:32;;;;;;;5.77;4.70;;;13.10;99.90;;;;;;5037724;28;20471;-67
2021/09/29 09:22:01;;;;;;;7.80;5.30;;;13.20;90.50;;;;;;5037940;28;20459;-65
2021/09/29 09:24:34;;;;;;;13.53;5.93;;;13.00;1.00;;;;;;5037535;28;20516;-66
2021/09/29 09:27:05;;;;;;;7.20;5.40;;;12.90;99.90;;;;;;5037788;28;20466;-67
2021/09/29 09:29:44;;;;;;;7.50;6.40;;;12.70;99.90;;;;;;5038058;28;20463;-66
2021/09/29 09:32:15;;;;;;;11.17;5.97;;;12.60;1.00;;;;;;5038110;28;20544;-66
2021/09/29 09:34:42;;;;;;;8.43;7.37;;;12.50;99.90;;;;;;5054854;28;20548;-67
2021/09/29 09:37:10;;;;;;;9.23;7.47;;;12.40;1.00;;;;;;5057424;28;20462;-66
2021/09/29 09:39:38;;;;;;;7.93;7.10;;;12.40;99.90;;;;;;5057939;28;20512;-67
2021/09/29 09:42:07;;;;;;;8.67;5.70;;;12.50;1.00;;;;;;5057648;28;20645;-67
2021/09/29 09:44:36;;;;;;;7.30;6.60;;;12.40;99.90;;;;;;5057403;28;20465;-67
2021/09/29 09:47:07;;;;;;;8.23;5.47;;;12.40;99.90;;;;;;5057421;28;20458;-66
2021/09/29 09:49:49;;;;;;;8.97;5.60;;;12.50;18.50;;;;;;5057950;28;20594;-69
2021/09/29 09:52:27;;;;;;;9.40;5.60;;;12.50;99.90;;;;;;5057256;28;20540;-66
2021/09/29 09:55:07;;;;;;;6.20;4.67;;;12.40;99.90;;;;;;5057531;28;20815;-65
2021/09/29 09:57:36;;;;;;;5.73;4.73;;;12.30;99.90;;;;;;5056832;28;20893;-66
2021/09/29 10:00:06;;;;;;;5.47;4.80;;;12.30;99.90;;;;;;5057414;28;20473;-66
2021/09/29 10:02:42;;;;;;;9.70;6.40;;;12.40;99.90;;;;;;5057534;28;20462;-66
2021/09/29 10:05:12;;;;;;;8.40;6.50;;;12.50;99.90;;;;;;5056383;28;20523;-66
2021/09/29 10:07:39;;;;;;;6.30;5.07;;;12.50;99.90;;;;;;5056389;28;20772;-65
2021/09/29 10:10:13;;;;;;;12.27;8.70;;;12.50;99.90;;;;;;5056126;28;20461;-67
2021/09/29 10:13:00;;;;;;;4.00;3.47;;;12.50;99.90;;;;;;5056234;28;20999;-67
2021/09/29 10:24:06;;;;;;;4.90;3.50;;;12.20;99.90;;;;;;5056535;28;20763;-65
2021/09/29 10:26:32;;;;;;;4.50;3.97;;;12.20;99.90;;;;;;5056653;28;20752;-66
2021/09/29 10:29:05;;;;;;;4.20;3.73;;;12.10;99.90;;;;;;5057135;28;20461;-66
2021/09/29 10:31:54;;;;;;;5.43;4.20;;;11.90;99.90;;;;;;5056861;28;20948;-65
2021/09/29 10:34:30;;;;;;;4.30;3.60;;;12.00;99.90;;;;;;5056282;28;20494;-63
2021/09/29 10:37:15;;;;;;;4.70;4.10;;;12.00;99.90;;;;;;5057113;28;20515;-64
2021/09/29 10:42:40;;;;;;;4.97;3.67;;;12.10;99.90;;;;;;5056262;28;20878;-64
2021/09/29 10:51:18;;;;;;;3.27;2.80;;;12.60;1.00;;;;;;5020715;28;20448;-65
2021/09/29 11:30:20;;;;;;;6.90;2.53;;;12.60;99.90;;;;;;5036058;28;20469;-65
2021/09/29 11:32:53;;;;;;;21.87;17.27;;;12.60;99.90;;;;;;5059442;28;20509;-65
2021/09/29 11:35:28;;;;;;;14.13;10.57;;;12.50;99.90;;;;;;5059128;28;20580;-67
2021/09/29 12:08:41;;;;;;;3.07;2.70;;;14.80;1.00;;;;;;5058765;28;20521;-69
2021/09/29 12:11:13;;;;;;;3.20;2.70;;;14.90;1.00;;;;;;5043607;28;20467;-69
2021/09/29 12:13:45;;;;;;;3.40;3.10;;;14.90;1.00;;;;;;5039534;28;20466;-68
2021/09/29 12:16:30;;;;;;;4.47;2.53;;;14.80;1.00;;;;;;5039714;28;20459;-68
2021/09/29 12:19:00;;;;;;;4.30;3.53;;;14.50;1.00;;;;;;5039424;28;20462;-66
2021/09/29 12:21:37;;;;;;;6.90;2.90;;;14.20;1.00;;;;;;5039184;28;20437;-66
2021/09/29 12:24:07;;;;;;;2.73;2.50;;;14.10;1.00;;;;;;5039289;28;20463;-66
2021/09/29 12:26:48;;;;;;;3.70;3.40;;;13.80;1.00;;;;;;5039553;28;20878;-66
2021/09/29 12:29:24;;;;;;;5.40;3.00;;;13.70;1.00;;;;;;5038875;28;20521;-67
2021/09/29 12:32:08;;;;;;;5.10;4.60;;;13.70;1.00;;;;;;5039424;28;20941;-64
2021/09/29 12:34:48;;;;;;;4.10;3.50;;;13.70;1.00;;;;;;5053744;28;20493;-64
2021/09/29 12:37:15;;;;;;;4.90;3.30;;;13.60;1.00;;;;;;5059028;28;20489;-63
2021/09/29 12:39:45;;;;;;;4.77;4.30;;;13.40;1.00;;;;;;5058108;28;20502;-66
2021/09/29 12:42:12;;;;;;;5.73;3.80;;;13.40;1.00;;;;;;5058794;28;20424;-65
2021/09/29 12:44:53;;;;;;;4.80;4.37;;;13.40;1.00;;;;;;5058776;28;20469;-65
2021/09/29 12:47:35;;;;;;;5.00;4.33;;;13.40;1.00;;;;;;5058527;28;20489;-65
2021/09/29 12:50:10;;;;;;;5.70;5.30;;;13.60;1.00;;;;;;5058445;28;20465;-65
2021/09/29 12:52:39;;;;;;;6.10;5.60;;;13.60;1.00;;;;;;5058728;28;20525;-65
2021/09/29 12:55:09;;;;;;;5.63;5.23;;;13.60;1.00;;;;;;5058711;28;20501;-65
2021/09/29 12:57:39;;;;;;;6.07;4.70;;;13.70;1.00;;;;;;5058482;28;20511;-64
2021/09/29 13:00:08;;;;;;;5.93;5.00;;;13.90;1.00;;;;;;5058418;28;20462;-65
2021/09/29 13:02:37;;;;;;;4.80;4.40;;;13.90;1.00;;;;;;5058314;28;20465;-65
2021/09/29 13:05:05;;;;;;;6.00;4.33;;;14.60;1.00;;;;;;5057764;28;20467;-65
2021/09/29 13:07:32;;;;;;;4.30;3.80;;;14.90;1.00;;;;;;5058537;28;20763;-67
2021/09/29 13:10:02;;;;;;;8.80;3.90;;;15.10;1.00;;;;;;5051921;28;20529;-66
2021/09/29 13:12:30;;;;;;;4.70;4.30;;;15.40;1.00;;;;;;5052597;28;20965;-66
2021/09/29 13:14:57;;;;;;;6.70;4.40;;;15.40;99.90;;;;;;5056821;28;20535;-65
2021/09/29 13:17:25;;;;;;;7.30;2.37;;;15.00;99.90;;;;;;5057719;28;20897;-68
2021/09/29 13:20:01;;;;;;;2.10;1.70;;;13.40;99.90;;;;;;5057919;28;20462;-67
2021/09/29 13:22:35;;;;;;;2.43;1.90;;;11.90;99.90;;;;;;5057636;28;20456;-67
2021/09/29 13:25:20;;;;;;;2.50;2.13;;;11.10;99.90;;;;;;5057028;28;20896;-67
2021/09/29 13:38:41;;;;;;;4.13;2.10;;;9.70;1.00;;;;;;5037243;28;20427;-68
2021/09/29 13:41:08;;;;;;;3.20;2.07;;;9.70;1.00;;;;;;5056702;28;20545;-68
2021/09/29 13:43:37;;;;;;;2.20;1.70;;;9.70;1.00;;;;;;5055244;28;20461;-67
2021/09/29 13:46:07;;;;;;;3.67;1.90;;;10.10;41.00;;;;;;5057067;28;20548;-69
2021/09/29 13:48:35;;;;;;;3.10;1.80;;;10.80;1.00;;;;;;5057238;28;20480;-68
2021/09/29 13:51:06;;;;;;;5.23;2.00;;;11.20;1.00;;;;;;5057333;28;20781;-69
2021/09/29 13:53:37;;;;;;;3.20;2.20;;;11.20;1.00;;;;;;5056956;28;20501;-69
2021/09/29 13:56:08;;;;;;;3.73;2.87;;;11.10;1.00;;;;;;5057477;28;20485;-66
2021/09/29 14:29:11;;;;;;;2.73;2.20;;;12.30;99.90;;;;;;5056614;28;20433;-65
2021/09/29 14:31:47;;;;;;;2.53;1.73;;;12.30;1.00;;;;;;5057247;28;20469;-66
2021/09/29 14:34:15;;;;;;;2.90;1.97;;;12.20;99.90;;;;;;5056864;28;20468;-66
2021/09/29 14:36:44;;;;;;;2.60;1.70;;;12.40;99.90;;;;;;5056761;28;20462;-66
2021/09/29 14:39:13;;;;;;;3.40;2.43;;;12.80;1.00;;;;;;5056762;28;20970;-66
2021/09/29 14:41:43;;;;;;;3.63;2.17;;;13.50;1.00;;;;;;5057068;28;20511;-67
2021/09/29 14:44:10;;;;;;;3.63;2.30;;;13.70;99.90;;;;;;5056973;28;20453;-67
2021/09/29 14:46:38;;;;;;;4.27;2.97;;;13.90;99.90;;;;;;5056580;28;20468;-67
2021/09/29 14:49:05;;;;;;;3.03;2.67;;;13.90;99.90;;;;;;5056818;28;20528;-66
2021/09/29 14:51:33;;;;;;;2.47;2.27;;;13.90;99.90;;;;;;5056742;28;20523;-67
2021/09/29 14:54:03;;;;;;;3.33;2.13;;;14.00;99.90;;;;;;5056133;28;20497;-67
2021/09/29 14:56:33;;;;;;;3.70;2.20;;;14.00;99.90;;;;;;5056615;28;20505;-66
2021/09/29 14:59:04;;;;;;;4.90;2.43;;;13.90;99.90;;;;;;5060250;28;20466;-65
2021/09/29 15:01:33;;;;;;;5.40;1.97;;;14.00;99.90;;;;;;5060667;28;20464;-65
2021/09/29 15:04:03;;;;;;;3.30;2.07;;;13.90;99.90;;;;;;5060555;28;20458;-65
2021/09/29 15:06:30;;;;;;;5.37;2.40;;;13.70;99.90;;;;;;5059209;28;20462;-64
2021/09/29 15:08:57;;;;;;;3.00;2.33;;;13.40;99.90;;;;;;5060384;28;20462;-64
2021/09/29 15:11:24;;;;;;;2.60;2.40;;;13.10;99.90;;;;;;5058655;28;20905;-64
2021/09/29 15:13:58;;;;;;;5.43;3.17;;;12.90;1.00;;;;;;5060527;28;20512;-64
2021/09/29 15:16:28;;;;;;;9.00;3.03;;;12.60;1.00;;;;;;5056250;28;20811;-64
2021/09/29 15:19:08;;;;;;;4.50;3.10;;;12.50;1.00;;;;;;5050764;28;20462;-64
2021/09/29 15:21:52;;;;;;;3.30;3.00;;;12.40;1.00;;;;;;5057364;28;20821;-64
2021/09/29 15:24:34;;;;;;;3.73;2.50;;;12.20;1.00;;;;;;5045972;28;20464;-65
2021/09/29 15:46:40;;;;;;;2.67;2.30;;;12.80;1.00;;;;;;5039467;28;20947;-64
2021/09/29 15:49:12;;;;;;;6.37;2.10;;;12.70;1.00;;;;;;5039722;28;20467;-64
2021/09/29 15:51:51;;;;;;;2.20;1.80;;;12.60;1.00;;;;;;5039633;28;20901;-64
2021/09/29 15:54:24;;;;;;;2.43;2.23;;;12.60;1.00;;;;;;5040217;28;20497;-64
2021/09/29 16:02:35;;;;;;;2.90;2.10;;;12.50;1.00;;;;;;4995610;28;20491;-64
2021/09/29 16:05:13;;;;;;;3.03;2.00;;;12.50;99.90;;;;;;5009167;28;20501;-64